Flight Track Log - Related Links

Times and Time Zones

All times are in EDT time to prevent confusion due to time zone crossing. See the JBU33 flight status page for this flight to view local times or setup timezone preferences in your user account.

Time Position Orientation Groundspeed Altitude Reporting Facility
EDT Latitude Longitude Course Direction KTS MPH feet Rate Location/Type
Mon 01:12:00 PM 44.1507 -73.2685 195° South  Level FlightAware Approximate
Mon 01:12:53 PM 44.2886 -73.1014 196° South 253 291 9,200  Level Boston Center
Mon 01:13:00 PM 44.0712 -73.2983 195° South  Level FlightAware Approximate
Mon 01:13:54 PM 44.1844 -73.1147 185° South 277 319 11,000  Level Boston Center
Mon 01:14:00 PM 43.9912 -73.3252 194° South  Level FlightAware Approximate
Mon 01:14:52 PM 44.0883 -73.1483 194° South 337 388 13,600  Level Boston Center
Mon 01:15:00 PM 43.9113 -73.3522 196° South  Level FlightAware Approximate
Mon 01:15:53 PM 43.9861 -73.1789 192° South 370 426 16,300  Level Boston Center
Mon 01:16:00 PM 43.8322 -73.3839 196° South  Level FlightAware Approximate
Mon 01:16:53 PM 43.8794 -73.2092 192° South 387 445 18,500  Level Boston Center
Mon 01:17:00 PM 43.7735 -73.4075 196° South  Level FlightAware Approximate
Mon 01:17:54 PM 43.7708 -73.2422 192° South 399 459 20,600  Level Boston Center
Mon 01:18:00 PM 43.7147 -73.4310 196° South  Level FlightAware Approximate
Mon 01:18:54 PM 43.6811 -73.2669 191° South 413 475 22,400  Level Boston Center
Mon 01:19:54 PM 43.5558 -73.3053 193° South 413 475 24,200 1,686 Climbing Boston Center
Mon 01:20:55 PM 43.4389 -73.3381 192° South 418 481 25,800 1,385 Climbing Boston Center
Mon 01:22:04 PM 43.3178 -73.3703 191° South 438 504 27,200 1,023 Climbing Boston Center
Mon 01:23:04 PM 43.1717 -73.4108 191° South 451 519 28,000 397 Climbing Boston Center
Mon 01:24:05 PM 43.0378 -73.4486 192° South 457 526 28,000  Level Boston Center
Mon 01:25:05 PM 42.9144 -73.4833 192° South 457 526 28,000  Level Boston Center
Mon 01:26:06 PM 42.8081 -73.5156 193° South 445 512 28,000  Level Boston Center
Mon 01:27:06 PM 42.6847 -73.5500 192° South 445 512 28,000  Level Boston Center
Mon 01:28:06 PM 42.5614 -73.5844 192° South 450 518 28,000  Level Boston Center
Mon 01:29:05 PM 42.4631 -73.6108 191° South 450 518 28,000  Level Boston Center
Mon 01:30:05 PM 42.3022 -73.6500 190° South 450 518 28,000  Level Boston Center
Mon 01:31:06 PM 42.1811 -73.6842 192° South 450 518 28,000  Level Boston Center
Mon 01:32:06 PM 42.0681 -73.7208 194° South 455 524 28,000  Level Boston Center
Mon 01:33:04 PM 41.9506 -73.7800 201° Southwest 455 524 28,000 -1,073 Level Boston Center
Mon 01:35:05 PM 41.7286 -73.8869 200° South 432 497 24,800 -1,558 Descending New York Center
Mon 01:36:05 PM 41.6186 -73.9456 202° Southwest 432 497 23,300 -1,600 Descending New York Center
Mon 01:37:05 PM 41.5025 -74.0064 201° Southwest 415 478 21,600 -1,678 Descending New York Center
Mon 01:38:03 PM 41.4011 -74.0569 201° Southwest 415 478 20,000 -814 Descending New York Center
Mon 01:39:03 PM 41.2881 -74.0817 189° South 410 472 20,000 -298 Level New York Center
Mon 01:40:04 PM 41.1731 -74.0981 186° South 410 472 19,400 -492 Descending New York Center
Mon 01:41:05 PM 41.0683 -74.1150 187° South 421 484 19,000 -218 Descending New York Center
Mon 01:41:54 PM 40.9667 -74.1167 181° South 387 445 19,000  Level New York TRACON
Mon 01:42:54 PM 40.8833 -74.0667 156° South 360 414 19,000 -350 Level New York TRACON
Mon 01:43:54 PM 40.8167 -73.9500 127° Southeast 369 425 18,300 -1,150 Descending New York TRACON
Mon 01:44:54 PM 40.7667 -73.8333 119° Southeast 357 411 16,700 -1,842 Descending New York TRACON
Mon 01:45:48 PM 40.7167 -73.7500 128° Southeast 359 413 14,800 -2,053 Descending New York TRACON
Mon 01:46:48 PM 40.6500 -73.6500 131° Southeast 358 412 12,800 -2,100 Descending New York TRACON
Mon 01:47:48 PM 40.6000 -73.5667 128° Southeast 307 353 10,600 -1,450 Descending New York TRACON
Mon 01:48:48 PM 40.5333 -73.4833 136° Southeast 266 306 9,900 -1,333 Descending New York TRACON
Mon 01:49:54 PM 40.5000 -73.4167 123° Southeast 254 292 7,800 -1,810 Descending New York TRACON
Mon 01:50:54 PM 40.5500 -73.3667 37° Northeast 247 284 6,100 -1,400 Descending New York TRACON
Mon 01:51:54 PM 40.6167 -73.3833 349° North 231 266 5,000 -1,050 Descending New York TRACON
Mon 01:52:54 PM 40.6667 -73.4000 346° North 229 264 4,000 -500 Descending New York TRACON
Mon 01:53:54 PM 40.7333 -73.4167 349° North 209 241 4,000 -200 Level New York TRACON
Mon 01:54:54 PM 40.7667 -73.4500 323° Northwest 192 221 3,600 -500 Descending New York TRACON
Mon 01:55:54 PM 40.7833 -73.5167 288° West 186 214 3,000 -650 Descending New York TRACON
Mon 01:56:54 PM 40.7667 -73.5833 252° West 188 216 2,300 -500 Descending New York TRACON
Mon 01:57:54 PM 40.7500 -73.6500 252° West 188 216 2,000 -263 Descending New York TRACON
Mon 01:58:48 PM 40.7167 -73.6833 217° Southwest 188 216 1,800 -632 Descending New York TRACON
Mon 01:59:48 PM 40.6667 -73.7333 217° Southwest 154 177 800 -1,000 Descending New York TRACON
Mon 02:01:00 PM 40.6333 -73.7667 288° West  Level FlightAware Approximate
Mon 02:08:00 PM 40.6398 -73.7789 288° West  Level Estimated
Mon 02:09:00 PM 40.6398 -73.7789 288° West  Level Estimated

Login

Don't have an account? Register now (free) for customized features, flight alerts, and more!